sensor_id;sensor_type;location;lat;lon;timestamp;pressure;altitude;pressure_sealevel;temperature;humidity
78488;BME280;67885;49.758;9.582;2023-03-01T00:00:53;100243.31;;;4.53;44.90
78488;BME280;67885;49.758;9.582;2023-03-01T00:03:19;100242.41;;;4.54;44.94
78488;BME280;67885;49.758;9.582;2023-03-01T00:05:46;100238.06;;;4.53;43.98
78488;BME280;67885;49.758;9.582;2023-03-01T00:08:15;100221.06;;;4.41;45.07
78488;BME280;67885;49.758;9.582;2023-03-01T00:10:41;100243.94;;;4.60;43.83
78488;BME280;67885;49.758;9.582;2023-03-01T00:13:08;100221.56;;;4.51;44.87
78488;BME280;67885;49.758;9.582;2023-03-01T00:15:38;100240.06;;;4.70;44.27
78488;BME280;67885;49.758;9.582;2023-03-01T00:18:05;100217.59;;;4.63;43.30
78488;BME280;67885;49.758;9.582;2023-03-01T00:20:32;100239.94;;;4.73;44.08
78488;BME280;67885;49.758;9.582;2023-03-01T00:22:59;100238.19;;;4.73;44.04
78488;BME280;67885;49.758;9.582;2023-03-01T00:25:27;100249.72;;;4.69;43.40
78488;BME280;67885;49.758;9.582;2023-03-01T00:27:54;100240.28;;;4.64;44.32
78488;BME280;67885;49.758;9.582;2023-03-01T00:30:20;100244.88;;;4.59;43.88
78488;BME280;67885;49.758;9.582;2023-03-01T00:32:47;100239.56;;;4.60;43.90
78488;BME280;67885;49.758;9.582;2023-03-01T00:35:14;100239.56;;;4.60;44.03
78488;BME280;67885;49.758;9.582;2023-03-01T00:37:40;100241.31;;;4.60;43.99
78488;BME280;67885;49.758;9.582;2023-03-01T00:40:08;100239.44;;;4.63;43.65
78488;BME280;67885;49.758;9.582;2023-03-01T00:42:37;100223.88;;;4.59;44.00
78488;BME280;67885;49.758;9.582;2023-03-01T00:45:04;100221.34;;;4.55;44.50
78488;BME280;67885;49.758;9.582;2023-03-01T00:47:31;100210.16;;;4.52;43.71
78488;BME280;67885;49.758;9.582;2023-03-01T00:49:58;100216.38;;;4.49;43.63
78488;BME280;67885;49.758;9.582;2023-03-01T00:52:25;100206.84;;;4.47;44.88
78488;BME280;67885;49.758;9.582;2023-03-01T00:54:52;100182.91;;;4.32;43.80
78488;BME280;67885;49.758;9.582;2023-03-01T00:57:19;100202.69;;;4.41;44.76
78488;BME280;67885;49.758;9.582;2023-03-01T00:59:47;100195.59;;;4.43;44.29
78488;BME280;67885;49.758;9.582;2023-03-01T01:02:13;100127.81;;;4.10;44.18
78488;BME280;67885;49.758;9.582;2023-03-01T01:04:41;100182.19;;;4.51;43.59
78488;BME280;67885;49.758;9.582;2023-03-01T01:07:07;100171.66;;;4.52;44.39
78488;BME280;67885;49.758;9.582;2023-03-01T01:09:34;100190.31;;;4.67;44.29
78488;BME280;67885;49.758;9.582;2023-03-01T01:12:01;100190.31;;;4.67;44.50
78488;BME280;67885;49.758;9.582;2023-03-01T01:14:28;100195.63;;;4.65;43.20
78488;BME280;67885;49.758;9.582;2023-03-01T01:16:56;100184.41;;;4.62;43.52
78488;BME280;67885;49.758;9.582;2023-03-01T01:19:23;100174.69;;;4.42;44.32
78488;BME280;67885;49.758;9.582;2023-03-01T01:21:50;100176.47;;;4.63;43.36
78488;BME280;67885;49.758;9.582;2023-03-01T01:24:18;100154.19;;;4.51;43.36
78488;BME280;67885;49.758;9.582;2023-03-01T01:26:45;100175.22;;;4.72;42.76
78488;BME280;67885;49.758;9.582;2023-03-01T01:29:12;100172.88;;;4.66;43.09
78488;BME280;67885;49.758;9.582;2023-03-01T01:31:41;100171.28;;;4.62;44.29
78488;BME280;67885;49.758;9.582;2023-03-01T01:34:14;100170.59;;;4.56;43.63
78488;BME280;67885;49.758;9.582;2023-03-01T01:36:41;100165.63;;;4.50;44.26
78488;BME280;67885;49.758;9.582;2023-03-01T01:39:08;100160.38;;;4.50;44.59
78488;BME280;67885;49.758;9.582;2023-03-01T01:41:40;100154.13;;;4.53;44.48
78488;BME280;67885;49.758;9.582;2023-03-01T01:44:17;100140.59;;;4.42;43.21
78488;BME280;67885;49.758;9.582;2023-03-01T01:46:48;100044.22;;;3.80;43.94
78488;BME280;67885;49.758;9.582;2023-03-01T01:49:24;100154.44;;;4.45;43.57
78488;BME280;67885;49.758;9.582;2023-03-01T01:52:00;100155.16;;;4.49;44.44
78488;BME280;67885;49.758;9.582;2023-03-01T01:54:37;100155.84;;;4.54;44.19
78488;BME280;67885;49.758;9.582;2023-03-01T01:57:10;100140.28;;;4.49;43.11
78488;BME280;67885;49.758;9.582;2023-03-01T01:59:39;100150.53;;;4.55;42.85
78488;BME280;67885;49.758;9.582;2023-03-01T02:02:09;100151.41;;;4.56;43.01
78488;BME280;67885;49.758;9.582;2023-03-01T02:04:37;100011.16;;;3.78;43.63
78488;BME280;67885;49.758;9.582;2023-03-01T02:07:13;100141.75;;;4.56;43.07
78488;BME280;67885;49.758;9.582;2023-03-01T02:09:42;100088.84;;;4.25;43.20
78488;BME280;67885;49.758;9.582;2023-03-01T02:12:12;100109.19;;;4.40;43.46
78488;BME280;67885;49.758;9.582;2023-03-01T02:14:39;100021.69;;;3.76;43.55
78488;BME280;67885;49.758;9.582;2023-03-01T02:17:06;100106.16;;;4.29;44.45
78488;BME280;67885;49.758;9.582;2023-03-01T02:19:47;100104.31;;;4.31;43.42
78488;BME280;67885;49.758;9.582;2023-03-01T02:22:22;100128.22;;;4.45;43.99
78488;BME280;67885;49.758;9.582;2023-03-01T02:24:58;100095.75;;;4.26;43.85
78488;BME280;67885;49.758;9.582;2023-03-01T02:27:36;100124.78;;;4.43;44.53
78488;BME280;67885;49.758;9.582;2023-03-01T02:30:07;99981.38;;;3.57;44.31
78488;BME280;67885;49.758;9.582;2023-03-01T02:32:38;100112.47;;;4.45;44.47
78488;BME280;67885;49.758;9.582;2023-03-01T02:35:09;100141.34;;;4.45;43.66
78488;BME280;67885;49.758;9.582;2023-03-01T02:37:39;100158.75;;;4.46;43.81
78488;BME280;67885;49.758;9.582;2023-03-01T02:40:12;100117.66;;;4.47;43.51
78488;BME280;67885;49.758;9.582;2023-03-01T02:42:49;100114.91;;;4.50;43.61
78488;BME280;67885;49.758;9.582;2023-03-01T02:45:18;100115.03;;;4.47;44.16
78488;BME280;67885;49.758;9.582;2023-03-01T02:47:45;100091.06;;;4.34;44.28
78488;BME280;67885;49.758;9.582;2023-03-01T02:50:22;100116.56;;;4.30;43.70
78488;BME280;67885;49.758;9.582;2023-03-01T02:53:00;100112.00;;;4.35;43.72
78488;BME280;67885;49.758;9.582;2023-03-01T02:55:28;100102.34;;;4.36;43.41
78488;BME280;67885;49.758;9.582;2023-03-01T02:57:56;100094.72;;;4.30;43.31
78488;BME280;67885;49.758;9.582;2023-03-01T03:00:29;100102.50;;;4.33;43.84
78488;BME280;67885;49.758;9.582;2023-03-01T03:02:58;100074.97;;;4.21;44.25
78488;BME280;67885;49.758;9.582;2023-03-01T03:05:27;100089.41;;;4.31;43.98
78488;BME280;67885;49.758;9.582;2023-03-01T03:07:58;100085.09;;;4.30;44.79
78488;BME280;67885;49.758;9.582;2023-03-01T03:10:28;100079.94;;;4.29;43.99
78488;BME280;67885;49.758;9.582;2023-03-01T03:12:58;100049.25;;;4.09;44.47
78488;BME280;67885;49.758;9.582;2023-03-01T03:15:28;100064.34;;;4.24;43.16
78488;BME280;67885;49.758;9.582;2023-03-01T03:17:56;100091.13;;;4.32;43.50
78488;BME280;67885;49.758;9.582;2023-03-01T03:20:24;100065.88;;;4.30;43.46
78488;BME280;67885;49.758;9.582;2023-03-01T03:22:54;100063.25;;;4.30;44.36
78488;BME280;67885;49.758;9.582;2023-03-01T03:25:22;100068.50;;;4.30;43.60
78488;BME280;67885;49.758;9.582;2023-03-01T03:27:51;100068.63;;;4.27;44.31
78488;BME280;67885;49.758;9.582;2023-03-01T03:30:23;100055.75;;;4.20;44.49
78488;BME280;67885;49.758;9.582;2023-03-01T03:32:52;100063.69;;;4.19;44.51
78488;BME280;67885;49.758;9.582;2023-03-01T03:35:20;100060.41;;;4.14;43.68
78488;BME280;67885;49.758;9.582;2023-03-01T03:37:48;100054.56;;;4.07;44.60
78488;BME280;67885;49.758;9.582;2023-03-01T03:40:33;100060.94;;;4.00;45.25
78488;BME280;67885;49.758;9.582;2023-03-01T03:43:00;100058.44;;;3.97;44.20
78488;BME280;67885;49.758;9.582;2023-03-01T03:45:27;100057.53;;;3.98;45.19
78488;BME280;67885;49.758;9.582;2023-03-01T03:47:55;100063.50;;;4.01;44.19
78488;BME280;67885;49.758;9.582;2023-03-01T03:50:22;100017.22;;;3.78;45.18
78488;BME280;67885;49.758;9.582;2023-03-01T03:52:49;100063.41;;;4.04;44.57
78488;BME280;67885;49.758;9.582;2023-03-01T03:55:15;100055.63;;;4.01;45.38
78488;BME280;67885;49.758;9.582;2023-03-01T03:57:46;100063.50;;;4.01;45.22
78488;BME280;67885;49.758;9.582;2023-03-01T04:00:19;100059.19;;;4.00;44.03
78488;BME280;67885;49.758;9.582;2023-03-01T04:02:48;100059.19;;;4.00;44.05
78488;BME280;67885;49.758;9.582;2023-03-01T04:05:18;100060.88;;;4.01;44.95
78488;BME280;67885;49.758;9.582;2023-03-01T04:07:45;100054.59;;;4.05;44.89
78488;BME280;67885;49.758;9.582;2023-03-01T04:10:16;100053.94;;;4.00;44.97
78488;BME280;67885;49.758;9.582;2023-03-01T04:12:43;100037.00;;;3.87;44.56
78488;BME280;67885;49.758;9.582;2023-03-01T04:15:11;99991.22;;;3.50;44.05
78488;BME280;67885;49.758;9.582;2023-03-01T04:17:42;100033.63;;;3.83;45.57
78488;BME280;67885;49.758;9.582;2023-03-01T04:20:11;100049.00;;;3.93;44.91
78488;BME280;67885;49.758;9.582;2023-03-01T04:22:40;100060.09;;;3.99;44.84
78488;BME280;67885;49.758;9.582;2023-03-01T04:25:07;100055.69;;;4.00;44.80
78488;BME280;67885;49.758;9.582;2023-03-01T04:27:35;100061.47;;;4.08;44.20
78488;BME280;67885;49.758;9.582;2023-03-01T04:30:03;100041.88;;;3.96;44.08
78488;BME280;67885;49.758;9.582;2023-03-01T04:32:30;100024.03;;;3.82;45.30
78488;BME280;67885;49.758;9.582;2023-03-01T04:34:57;100070.22;;;4.09;44.64
78488;BME280;67885;49.758;9.582;2023-03-01T04:37:23;100052.28;;;3.98;45.24
78488;BME280;67885;49.758;9.582;2023-03-01T04:39:52;100008.75;;;3.71;45.64
78488;BME280;67885;49.758;9.582;2023-03-01T04:42:19;100055.28;;;3.88;44.79
78488;BME280;67885;49.758;9.582;2023-03-01T04:44:46;100067.34;;;3.93;45.26
78488;BME280;67885;49.758;9.582;2023-03-01T04:47:12;100055.34;;;3.87;45.57
78488;BME280;67885;49.758;9.582;2023-03-01T04:49:39;100058.50;;;3.95;45.39
78488;BME280;67885;49.758;9.582;2023-03-01T04:52:06;99947.72;;;3.24;45.49
78488;BME280;67885;49.758;9.582;2023-03-01T04:54:33;100019.19;;;3.73;45.28
78488;BME280;67885;49.758;9.582;2023-03-01T04:57:03;100064.50;;;3.99;45.72
78488;BME280;67885;49.758;9.582;2023-03-01T04:59:29;100059.47;;;3.93;44.28
78488;BME280;67885;49.758;9.582;2023-03-01T05:01:56;100060.31;;;3.93;45.22
78488;BME280;67885;49.758;9.582;2023-03-01T05:04:24;100059.47;;;3.93;45.44
78488;BME280;67885;49.758;9.582;2023-03-01T05:06:51;100062.16;;;3.91;45.46
78488;BME280;67885;49.758;9.582;2023-03-01T05:09:19;99995.94;;;3.18;44.91
78488;BME280;67885;49.758;9.582;2023-03-01T05:11:46;100064.72;;;3.93;45.02
78488;BME280;67885;49.758;9.582;2023-03-01T05:14:14;100059.47;;;3.93;44.45
78488;BME280;67885;49.758;9.582;2023-03-01T05:16:41;100061.19;;;3.94;45.68
78488;BME280;67885;49.758;9.582;2023-03-01T05:19:07;99990.34;;;3.51;45.46
78488;BME280;67885;49.758;9.582;2023-03-01T05:21:41;100057.88;;;3.88;45.93
78488;BME280;67885;49.758;9.582;2023-03-01T05:24:22;100053.63;;;3.86;45.79
78488;BME280;67885;49.758;9.582;2023-03-01T05:26:48;100055.50;;;3.82;44.80
78488;BME280;67885;49.758;9.582;2023-03-01T05:29:18;100012.94;;;3.53;45.11
78488;BME280;67885;49.758;9.582;2023-03-01T05:31:51;100054.16;;;3.72;46.26
78488;BME280;67885;49.758;9.582;2023-03-01T05:34:18;100046.28;;;3.72;45.66
78488;BME280;67885;49.758;9.582;2023-03-01T05:36:48;100044.44;;;3.74;45.89
78488;BME280;67885;49.758;9.582;2023-03-01T05:39:19;99971.34;;;3.22;45.33
78488;BME280;67885;49.758;9.582;2023-03-01T05:41:46;100035.97;;;3.67;48.32
78488;BME280;67885;49.758;9.582;2023-03-01T05:44:13;100043.34;;;3.80;46.54
78488;BME280;67885;49.758;9.582;2023-03-01T05:46:41;100042.38;;;3.82;45.70
78488;BME280;67885;49.758;9.582;2023-03-01T05:49:08;100048.31;;;3.87;45.50
78488;BME280;67885;49.758;9.582;2023-03-01T05:51:35;100042.16;;;3.88;45.94
78488;BME280;67885;49.758;9.582;2023-03-01T05:54:01;100052.59;;;3.90;44.51
78488;BME280;67885;49.758;9.582;2023-03-01T05:56:32;100048.16;;;3.92;45.05
78488;BME280;67885;49.758;9.582;2023-03-01T05:58:59;100042.84;;;3.94;44.49
78488;BME280;67885;49.758;9.582;2023-03-01T06:01:26;100041.00;;;3.96;45.08
78488;BME280;67885;49.758;9.582;2023-03-01T06:03:54;100043.56;;;3.97;45.48
78488;BME280;67885;49.758;9.582;2023-03-01T06:06:22;100045.16;;;4.01;44.35
78488;BME280;67885;49.758;9.582;2023-03-01T06:08:49;99984.41;;;3.69;44.53
78488;BME280;67885;49.758;9.582;2023-03-01T06:11:16;100026.31;;;3.92;44.78
78488;BME280;67885;49.758;9.582;2023-03-01T06:13:44;100023.28;;;3.80;45.58
78488;BME280;67885;49.758;9.582;2023-03-01T06:16:11;100032.94;;;3.78;44.54
78488;BME280;67885;49.758;9.582;2023-03-01T06:18:38;100004.78;;;3.37;45.33
78488;BME280;67885;49.758;9.582;2023-03-01T06:21:08;100035.59;;;3.54;45.11
78488;BME280;67885;49.758;9.582;2023-03-01T06:23:35;100026.50;;;3.41;46.03
78488;BME280;67885;49.758;9.582;2023-03-01T06:26:05;100044.47;;;3.27;46.75
78488;BME280;67885;49.758;9.582;2023-03-01T06:28:32;100039.53;;;3.43;46.02
78488;BME280;67885;49.758;9.582;2023-03-01T06:30:58;100038.00;;;3.37;46.83
78488;BME280;67885;49.758;9.582;2023-03-01T06:33:25;100042.66;;;3.29;47.52
78488;BME280;67885;49.758;9.582;2023-03-01T06:35:54;100054.88;;;3.28;47.29
78488;BME280;67885;49.758;9.582;2023-03-01T06:38:23;100041.63;;;3.33;46.49
78488;BME280;67885;49.758;9.582;2023-03-01T06:40:54;100040.72;;;3.34;48.00
78488;BME280;67885;49.758;9.582;2023-03-01T06:43:22;100030.31;;;3.32;46.73
78488;BME280;67885;49.758;9.582;2023-03-01T06:45:49;100042.25;;;3.40;45.57
78488;BME280;67885;49.758;9.582;2023-03-01T06:48:16;99943.06;;;2.84;46.30
78488;BME280;67885;49.758;9.582;2023-03-01T06:50:43;99902.88;;;2.62;47.43
78488;BME280;67885;49.758;9.582;2023-03-01T06:53:10;100034.06;;;3.49;46.85
78488;BME280;67885;49.758;9.582;2023-03-01T06:55:38;100038.38;;;3.50;45.85
78488;BME280;67885;49.758;9.582;2023-03-01T06:58:04;99899.28;;;2.66;47.49
78488;BME280;67885;49.758;9.582;2023-03-01T07:00:31;100032.00;;;3.57;46.08
78488;BME280;67885;49.758;9.582;2023-03-01T07:02:59;100054.50;;;3.63;46.60
78488;BME280;67885;49.758;9.582;2023-03-01T07:05:27;100013.56;;;3.60;45.37
78488;BME280;67885;49.758;9.582;2023-03-01T07:07:54;100036.19;;;3.85;46.43
78488;BME280;67885;49.758;9.582;2023-03-01T07:10:22;100030.66;;;3.93;45.74
78488;BME280;67885;49.758;9.582;2023-03-01T07:12:50;100023.41;;;3.99;46.87
78488;BME280;67885;49.758;9.582;2023-03-01T07:15:17;100005.91;;;4.00;46.81
78488;BME280;67885;49.758;9.582;2023-03-01T07:17:43;100023.16;;;4.28;45.71
78488;BME280;67885;49.758;9.582;2023-03-01T07:20:13;100010.72;;;4.33;45.82
78488;BME280;67885;49.758;9.582;2023-03-01T07:22:40;99987.41;;;4.25;45.52
78488;BME280;67885;49.758;9.582;2023-03-01T07:25:09;99975.94;;;4.28;45.13
78488;BME280;67885;49.758;9.582;2023-03-01T07:27:36;100004.97;;;4.66;44.46
78488;BME280;67885;49.758;9.582;2023-03-01T07:30:06;100006.84;;;4.83;44.48
78488;BME280;67885;49.758;9.582;2023-03-01T07:32:33;100008.00;;;4.96;44.73
78488;BME280;67885;49.758;9.582;2023-03-01T07:34:59;100014.56;;;5.06;44.41
78488;BME280;67885;49.758;9.582;2023-03-01T07:37:26;100005.72;;;5.09;43.54
78488;BME280;67885;49.758;9.582;2023-03-01T07:39:53;99989.31;;;5.04;45.08
78488;BME280;67885;49.758;9.582;2023-03-01T07:42:19;100004.91;;;5.28;43.69
78488;BME280;67885;49.758;9.582;2023-03-01T07:44:46;100003.63;;;5.36;43.31
78488;BME280;67885;49.758;9.582;2023-03-01T07:47:14;100005.97;;;5.43;43.88
78488;BME280;67885;49.758;9.582;2023-03-01T07:49:41;99973.88;;;5.36;44.15
78488;BME280;67885;49.758;9.582;2023-03-01T07:52:09;99997.16;;;5.63;44.20
78488;BME280;67885;49.758;9.582;2023-03-01T07:54:36;99993.88;;;5.77;43.49
78488;BME280;67885;49.758;9.582;2023-03-01T07:57:03;99936.09;;;5.57;43.68
78488;BME280;67885;49.758;9.582;2023-03-01T07:59:29;99990.78;;;6.05;42.44
78488;BME280;67885;49.758;9.582;2023-03-01T08:01:57;99986.25;;;6.08;41.88
78488;BME280;67885;49.758;9.582;2023-03-01T08:04:25;99992.84;;;6.17;42.54
78488;BME280;67885;49.758;9.582;2023-03-01T08:06:52;99978.16;;;6.13;41.12
78488;BME280;67885;49.758;9.582;2023-03-01T08:09:18;99984.97;;;6.17;41.96
78488;BME280;67885;49.758;9.582;2023-03-01T08:11:46;99980.09;;;6.27;41.47
78488;BME280;67885;49.758;9.582;2023-03-01T08:14:12;99974.59;;;6.32;41.75
78488;BME280;67885;49.758;9.582;2023-03-01T08:16:39;99940.84;;;6.22;41.34
78488;BME280;67885;49.758;9.582;2023-03-01T08:19:07;99973.28;;;6.58;41.50
78488;BME280;67885;49.758;9.582;2023-03-01T08:21:36;99934.03;;;6.53;39.94
78488;BME280;67885;49.758;9.582;2023-03-01T08:24:04;99982.75;;;6.96;40.50
78488;BME280;67885;49.758;9.582;2023-03-01T08:26:32;99971.56;;;7.08;40.64
78488;BME280;67885;49.758;9.582;2023-03-01T08:29:00;99981.53;;;7.19;39.23
78488;BME280;67885;49.758;9.582;2023-03-01T08:31:29;99988.09;;;7.28;39.29
78488;BME280;67885;49.758;9.582;2023-03-01T08:33:59;99979.50;;;7.24;38.86
78488;BME280;67885;49.758;9.582;2023-03-01T08:36:28;99958.00;;;7.16;39.09
78488;BME280;67885;49.758;9.582;2023-03-01T08:38:57;99953.94;;;7.26;39.41
78488;BME280;67885;49.758;9.582;2023-03-01T08:41:24;99962.53;;;7.46;38.99
78488;BME280;67885;49.758;9.582;2023-03-01T08:43:51;99948.16;;;7.35;39.07
78488;BME280;67885;49.758;9.582;2023-03-01T08:46:18;99960.66;;;7.64;39.16
78488;BME280;67885;49.758;9.582;2023-03-01T08:48:44;99969.16;;;7.69;37.59
78488;BME280;67885;49.758;9.582;2023-03-01T08:51:13;99956.81;;;7.37;37.06
78488;BME280;67885;49.758;9.582;2023-03-01T08:53:41;99962.44;;;7.47;37.86
78488;BME280;67885;49.758;9.582;2023-03-01T08:56:09;99959.28;;;7.40;37.18
78488;BME280;67885;49.758;9.582;2023-03-01T08:58:37;99912.59;;;7.11;37.60
78488;BME280;67885;49.758;9.582;2023-03-01T09:01:07;99948.81;;;7.23;37.00
78488;BME280;67885;49.758;9.582;2023-03-01T09:03:34;99910.81;;;6.95;37.77
78488;BME280;67885;49.758;9.582;2023-03-01T09:06:02;99897.81;;;6.92;37.27
78488;BME280;67885;49.758;9.582;2023-03-01T09:08:29;99945.94;;;7.28;38.13
78488;BME280;67885;49.758;9.582;2023-03-01T09:10:56;99948.91;;;7.37;37.62
78488;BME280;67885;49.758;9.582;2023-03-01T09:13:24;99945.19;;;7.41;37.24
78488;BME280;67885;49.758;9.582;2023-03-01T09:15:52;99938.56;;;7.50;37.93
78488;BME280;67885;49.758;9.582;2023-03-01T09:18:19;99886.38;;;7.25;37.35
78488;BME280;67885;49.758;9.582;2023-03-01T09:20:45;99924.28;;;7.38;36.91
78488;BME280;67885;49.758;9.582;2023-03-01T09:23:12;99833.59;;;6.95;37.62
78488;BME280;67885;49.758;9.582;2023-03-01T09:25:39;99926.84;;;7.56;36.93
78488;BME280;67885;49.758;9.582;2023-03-01T09:28:06;99932.69;;;7.61;36.39
78488;BME280;67885;49.758;9.582;2023-03-01T09:30:34;99941.78;;;7.55;37.43
78488;BME280;67885;49.758;9.582;2023-03-01T09:33:01;99917.03;;;7.58;37.92
78488;BME280;67885;49.758;9.582;2023-03-01T09:35:27;99919.56;;;7.75;36.86
78488;BME280;67885;49.758;9.582;2023-03-01T09:37:54;99917.25;;;7.85;37.08
78488;BME280;67885;49.758;9.582;2023-03-01T09:40:24;99915.31;;;7.89;36.86
78488;BME280;67885;49.758;9.582;2023-03-01T09:42:59;99914.72;;;7.84;36.35
78488;BME280;67885;49.758;9.582;2023-03-01T09:45:35;99876.88;;;7.69;37.08
78488;BME280;67885;49.758;9.582;2023-03-01T09:48:11;99913.75;;;8.01;36.40
78488;BME280;67885;49.758;9.582;2023-03-01T09:50:42;99913.56;;;8.04;37.18
78488;BME280;67885;49.758;9.582;2023-03-01T09:53:15;99875.50;;;7.93;36.10
78488;BME280;67885;49.758;9.582;2023-03-01T09:55:44;99908.16;;;8.21;36.41
78488;BME280;67885;49.758;9.582;2023-03-01T09:58:37;99873.06;;;8.05;35.53
78488;BME280;67885;49.758;9.582;2023-03-01T10:01:26;99870.16;;;8.09;36.73
78488;BME280;67885;49.758;9.582;2023-03-01T10:04:19;99904.75;;;8.50;35.96
78488;BME280;67885;49.758;9.582;2023-03-01T10:07:01;99901.19;;;8.65;36.04
78488;BME280;67885;49.758;9.582;2023-03-01T10:09:34;99904.59;;;8.67;35.57
78488;BME280;67885;49.758;9.582;2023-03-01T10:12:07;99896.19;;;8.60;35.34
78488;BME280;67885;49.758;9.582;2023-03-01T10:14:39;99895.81;;;8.52;35.22
78488;BME280;67885;49.758;9.582;2023-03-01T10:17:22;99885.59;;;8.46;35.29
78488;BME280;67885;49.758;9.582;2023-03-01T10:19:50;99890.38;;;8.39;35.31
78488;BME280;67885;49.758;9.582;2023-03-01T10:22:19;99879.31;;;8.33;36.05
78488;BME280;67885;49.758;9.582;2023-03-01T10:24:48;99872.56;;;8.43;35.51
78488;BME280;67885;49.758;9.582;2023-03-01T10:27:21;99872.16;;;8.51;36.02
78488;BME280;67885;49.758;9.582;2023-03-01T10:29:59;99869.69;;;8.62;35.24
78488;BME280;67885;49.758;9.582;2023-03-01T10:32:30;99865.34;;;8.61;34.65
78488;BME280;67885;49.758;9.582;2023-03-01T10:34:57;99872.53;;;8.59;35.50
78488;BME280;67885;49.758;9.582;2023-03-01T10:37:26;99865.44;;;8.59;35.20
78488;BME280;67885;49.758;9.582;2023-03-01T10:39:58;99862.00;;;8.43;34.72
78488;BME280;67885;49.758;9.582;2023-03-01T10:42:30;99815.97;;;8.04;35.11
78488;BME280;67885;49.758;9.582;2023-03-01T10:44:58;99687.88;;;7.10;35.19
78488;BME280;67885;49.758;9.582;2023-03-01T10:47:42;99873.47;;;8.13;35.97
78488;BME280;67885;49.758;9.582;2023-03-01T10:50:20;99865.53;;;8.13;36.38
78488;BME280;67885;49.758;9.582;2023-03-01T10:52:57;99804.53;;;7.89;36.06
78488;BME280;67885;49.758;9.582;2023-03-01T10:55:31;99870.84;;;8.27;35.94
78488;BME280;67885;49.758;9.582;2023-03-01T10:58:08;99853.31;;;8.41;35.96
78488;BME280;67885;49.758;9.582;2023-03-01T11:00:47;99859.09;;;8.48;35.85
78488;BME280;67885;49.758;9.582;2023-03-01T11:03:19;99859.41;;;8.57;35.16
78488;BME280;67885;49.758;9.582;2023-03-01T11:05:57;99863.34;;;8.50;34.99
78488;BME280;67885;49.758;9.582;2023-03-01T11:08:40;99837.47;;;8.41;35.34
78488;BME280;67885;49.758;9.582;2023-03-01T11:11:18;99861.84;;;8.46;35.72
78488;BME280;67885;49.758;9.582;2023-03-01T11:13:53;99816.94;;;8.32;36.00
78488;BME280;67885;49.758;9.582;2023-03-01T11:16:27;99832.34;;;8.54;35.29
78488;BME280;67885;49.758;9.582;2023-03-01T11:18:58;99799.22;;;8.19;35.48
78488;BME280;67885;49.758;9.582;2023-03-01T11:21:28;99789.53;;;8.34;35.69
78488;BME280;67885;49.758;9.582;2023-03-01T11:24:00;99827.34;;;8.64;35.29
78488;BME280;67885;49.758;9.582;2023-03-01T11:26:30;99808.19;;;8.74;35.20
78488;BME280;67885;49.758;9.582;2023-03-01T11:29:06;99807.88;;;8.93;35.45
78488;BME280;67885;49.758;9.582;2023-03-01T11:31:40;99780.31;;;8.98;35.24
78488;BME280;67885;49.758;9.582;2023-03-01T11:34:15;99796.81;;;9.16;34.63
78488;BME280;67885;49.758;9.582;2023-03-01T11:36:51;99792.34;;;9.16;35.67
78488;BME280;67885;49.758;9.582;2023-03-01T11:39:28;99783.28;;;9.20;34.64
78488;BME280;67885;49.758;9.582;2023-03-01T11:42:05;99792.44;;;9.42;35.20
78488;BME280;67885;49.758;9.582;2023-03-01T11:44:36;99796.81;;;9.56;34.96
78488;BME280;67885;49.758;9.582;2023-03-01T11:47:19;99776.84;;;9.65;34.06
78488;BME280;67885;49.758;9.582;2023-03-01T11:50:13;99785.75;;;9.64;34.17
78488;BME280;67885;49.758;9.582;2023-03-01T11:52:53;99794.41;;;9.66;33.54
78488;BME280;67885;49.758;9.582;2023-03-01T11:55:36;99785.09;;;9.60;34.49
78488;BME280;67885;49.758;9.582;2023-03-01T11:58:27;99765.63;;;9.61;34.31
78488;BME280;67885;49.758;9.582;2023-03-01T12:01:08;99754.94;;;9.62;32.85
78488;BME280;67885;49.758;9.582;2023-03-01T12:03:51;99766.19;;;9.79;34.52
78488;BME280;67885;49.758;9.582;2023-03-01T12:09:42;99644.91;;;9.21;33.76
78488;BME280;67885;49.758;9.582;2023-03-01T12:12:30;99735.31;;;9.79;33.52
78488;BME280;67885;49.758;9.582;2023-03-01T12:15:24;99756.78;;;10.01;32.99
78488;BME280;67885;49.758;9.582;2023-03-01T12:18:16;99737.00;;;9.93;32.64
78488;BME280;67885;49.758;9.582;2023-03-01T12:20:55;99744.28;;;9.90;33.55
78488;BME280;67885;49.758;9.582;2023-03-01T12:23:47;99716.69;;;9.81;33.93
78488;BME280;67885;49.758;9.582;2023-03-01T12:26:26;99721.66;;;9.99;33.62
78488;BME280;67885;49.758;9.582;2023-03-01T12:29:24;99718.69;;;10.03;34.02
78488;BME280;67885;49.758;9.582;2023-03-01T12:32:12;99723.03;;;10.04;33.56
78488;BME280;67885;49.758;9.582;2023-03-01T12:34:59;99717.63;;;10.06;32.95
78488;BME280;67885;49.758;9.582;2023-03-01T12:37:38;99718.47;;;10.06;33.67
78488;BME280;67885;49.758;9.582;2023-03-01T12:40:36;99712.09;;;10.09;33.49
78488;BME280;67885;49.758;9.582;2023-03-01T12:43:27;99653.41;;;9.78;32.99
78488;BME280;67885;49.758;9.582;2023-03-01T12:46:15;99684.91;;;9.94;33.04
78488;BME280;67885;49.758;9.582;2023-03-01T12:48:55;99687.03;;;10.02;33.26
78488;BME280;67885;49.758;9.582;2023-03-01T12:51:30;99681.22;;;10.09;34.14
78488;BME280;67885;49.758;9.582;2023-03-01T12:54:01;99655.41;;;10.00;34.03
78488;BME280;67885;49.758;9.582;2023-03-01T12:56:35;99672.81;;;10.28;32.54
78488;BME280;67885;49.758;9.582;2023-03-01T12:59:13;99672.28;;;10.23;33.48
78488;BME280;67885;49.758;9.582;2023-03-01T13:01:52;99664.97;;;10.27;32.27
78488;BME280;67885;49.758;9.582;2023-03-01T13:04:37;99646.47;;;10.14;33.06
78488;BME280;67885;49.758;9.582;2023-03-01T13:07:25;99652.81;;;10.24;33.09
78488;BME280;67885;49.758;9.582;2023-03-01T13:10:09;99661.81;;;10.22;33.06
78488;BME280;67885;49.758;9.582;2023-03-01T13:12:52;99645.81;;;10.23;32.15
78488;BME280;67885;49.758;9.582;2023-03-01T13:15:32;99633.47;;;10.11;32.62
78488;BME280;67885;49.758;9.582;2023-03-01T13:18:01;99583.16;;;9.48;32.81
78488;BME280;67885;49.758;9.582;2023-03-01T13:20:45;99638.72;;;10.24;32.96
78488;BME280;67885;49.758;9.582;2023-03-01T13:23:24;99597.06;;;10.02;32.84
78488;BME280;67885;49.758;9.582;2023-03-01T13:26:10;99626.19;;;10.39;32.97
78488;BME280;67885;49.758;9.582;2023-03-01T13:28:56;99620.88;;;10.52;32.59